sensor_id;sensor_type;location;lat;lon;timestamp;temperature;humidity
16995;DHT22;8614;48.522;9.206;2022-07-24T00:00:43;21.00;99.90
16995;DHT22;8614;48.522;9.206;2022-07-24T00:03:10;20.90;99.90
16995;DHT22;8614;48.522;9.206;2022-07-24T00:05:37;20.80;99.90
16995;DHT22;8614;48.522;9.206;2022-07-24T00:08:04;20.80;99.90
16995;DHT22;8614;48.522;9.206;2022-07-24T00:10:31;20.70;99.90
16995;DHT22;8614;48.522;9.206;2022-07-24T00:12:59;20.70;99.90
16995;DHT22;8614;48.522;9.206;2022-07-24T00:15:26;20.60;99.90
16995;DHT22;8614;48.522;9.206;2022-07-24T00:17:53;20.60;99.90
16995;DHT22;8614;48.522;9.206;2022-07-24T00:20:20;20.50;99.90
16995;DHT22;8614;48.522;9.206;2022-07-24T00:22:47;20.50;99.90
16995;DHT22;8614;48.522;9.206;2022-07-24T00:25:14;20.50;99.90
16995;DHT22;8614;48.522;9.206;2022-07-24T00:27:41;20.50;99.90
16995;DHT22;8614;48.522;9.206;2022-07-24T00:30:10;20.50;99.90
16995;DHT22;8614;48.522;9.206;2022-07-24T00:32:37;20.40;99.90
16995;DHT22;8614;48.522;9.206;2022-07-24T00:35:04;20.40;99.90
16995;DHT22;8614;48.522;9.206;2022-07-24T00:37:31;20.40;99.90
16995;DHT22;8614;48.522;9.206;2022-07-24T00:39:58;20.30;99.90
16995;DHT22;8614;48.522;9.206;2022-07-24T00:42:25;20.30;99.90
16995;DHT22;8614;48.522;9.206;2022-07-24T00:44:52;20.30;99.90
16995;DHT22;8614;48.522;9.206;2022-07-24T00:47:20;20.20;99.90
16995;DHT22;8614;48.522;9.206;2022-07-24T00:49:47;20.20;99.90
16995;DHT22;8614;48.522;9.206;2022-07-24T00:52:13;20.20;99.90
16995;DHT22;8614;48.522;9.206;2022-07-24T00:54:40;20.20;99.90
16995;DHT22;8614;48.522;9.206;2022-07-24T00:57:07;20.20;99.90
16995;DHT22;8614;48.522;9.206;2022-07-24T00:59:34;20.10;99.90
16995;DHT22;8614;48.522;9.206;2022-07-24T01:02:01;20.10;99.90
16995;DHT22;8614;48.522;9.206;2022-07-24T01:04:29;20.10;99.90
16995;DHT22;8614;48.522;9.206;2022-07-24T01:06:56;20.10;99.90
16995;DHT22;8614;48.522;9.206;2022-07-24T01:09:23;20.10;99.90
16995;DHT22;8614;48.522;9.206;2022-07-24T01:11:50;20.10;99.90
16995;DHT22;8614;48.522;9.206;2022-07-24T01:14:18;20.00;99.90
16995;DHT22;8614;48.522;9.206;2022-07-24T01:16:45;20.00;99.90
16995;DHT22;8614;48.522;9.206;2022-07-24T01:19:11;19.90;99.90
16995;DHT22;8614;48.522;9.206;2022-07-24T01:21:45;19.90;99.90
16995;DHT22;8614;48.522;9.206;2022-07-24T01:24:12;19.80;99.90
16995;DHT22;8614;48.522;9.206;2022-07-24T01:26:39;19.70;99.90
16995;DHT22;8614;48.522;9.206;2022-07-24T01:29:05;19.60;99.90
16995;DHT22;8614;48.522;9.206;2022-07-24T01:31:32;19.60;99.90
16995;DHT22;8614;48.522;9.206;2022-07-24T01:33:59;19.60;99.90
16995;DHT22;8614;48.522;9.206;2022-07-24T01:36:26;19.60;99.90
16995;DHT22;8614;48.522;9.206;2022-07-24T01:38:54;19.60;99.90
16995;DHT22;8614;48.522;9.206;2022-07-24T01:41:21;19.50;99.90
16995;DHT22;8614;48.522;9.206;2022-07-24T01:43:48;19.50;99.90
16995;DHT22;8614;48.522;9.206;2022-07-24T01:46:15;19.50;99.90
16995;DHT22;8614;48.522;9.206;2022-07-24T01:48:43;19.50;99.90
16995;DHT22;8614;48.522;9.206;2022-07-24T01:51:10;19.40;99.90
16995;DHT22;8614;48.522;9.206;2022-07-24T01:53:38;19.40;99.90
16995;DHT22;8614;48.522;9.206;2022-07-24T01:56:06;19.40;99.90
16995;DHT22;8614;48.522;9.206;2022-07-24T01:58:33;19.40;99.90
16995;DHT22;8614;48.522;9.206;2022-07-24T02:01:00;19.40;99.90
16995;DHT22;8614;48.522;9.206;2022-07-24T02:03:26;19.40;99.90
16995;DHT22;8614;48.522;9.206;2022-07-24T02:05:53;19.40;99.90
16995;DHT22;8614;48.522;9.206;2022-07-24T02:08:20;19.40;99.90
16995;DHT22;8614;48.522;9.206;2022-07-24T02:10:47;19.40;99.90
16995;DHT22;8614;48.522;9.206;2022-07-24T02:13:15;19.30;99.90
16995;DHT22;8614;48.522;9.206;2022-07-24T02:15:42;19.30;99.90
16995;DHT22;8614;48.522;9.206;2022-07-24T02:18:09;19.20;99.90
16995;DHT22;8614;48.522;9.206;2022-07-24T02:20:36;19.10;99.90
16995;DHT22;8614;48.522;9.206;2022-07-24T02:23:02;19.20;99.90
16995;DHT22;8614;48.522;9.206;2022-07-24T02:25:29;19.10;99.90
16995;DHT22;8614;48.522;9.206;2022-07-24T02:27:56;19.10;99.90
16995;DHT22;8614;48.522;9.206;2022-07-24T02:30:24;19.10;99.90
16995;DHT22;8614;48.522;9.206;2022-07-24T02:32:51;19.10;99.90
16995;DHT22;8614;48.522;9.206;2022-07-24T02:35:18;19.10;99.90
16995;DHT22;8614;48.522;9.206;2022-07-24T02:37:45;19.00;99.90
16995;DHT22;8614;48.522;9.206;2022-07-24T02:40:13;19.00;99.90
16995;DHT22;8614;48.522;9.206;2022-07-24T02:42:41;18.90;99.90
16995;DHT22;8614;48.522;9.206;2022-07-24T02:45:08;18.90;99.90
16995;DHT22;8614;48.522;9.206;2022-07-24T02:47:46;18.90;99.90
16995;DHT22;8614;48.522;9.206;2022-07-24T02:50:13;18.80;99.90
16995;DHT22;8614;48.522;9.206;2022-07-24T02:52:40;18.80;99.90
16995;DHT22;8614;48.522;9.206;2022-07-24T02:55:07;18.90;99.90
16995;DHT22;8614;48.522;9.206;2022-07-24T02:57:35;18.80;99.90
16995;DHT22;8614;48.522;9.206;2022-07-24T03:00:03;18.80;99.90
16995;DHT22;8614;48.522;9.206;2022-07-24T03:02:30;18.80;99.90
16995;DHT22;8614;48.522;9.206;2022-07-24T03:04:58;18.80;99.90
16995;DHT22;8614;48.522;9.206;2022-07-24T03:07:25;18.70;99.90
16995;DHT22;8614;48.522;9.206;2022-07-24T03:09:52;18.70;99.90
16995;DHT22;8614;48.522;9.206;2022-07-24T03:12:19;18.70;99.90
16995;DHT22;8614;48.522;9.206;2022-07-24T03:14:46;18.60;99.90
16995;DHT22;8614;48.522;9.206;2022-07-24T03:17:14;18.60;99.90
16995;DHT22;8614;48.522;9.206;2022-07-24T03:19:41;18.60;99.90
16995;DHT22;8614;48.522;9.206;2022-07-24T03:22:09;18.60;99.90
16995;DHT22;8614;48.522;9.206;2022-07-24T03:24:36;18.60;99.90
16995;DHT22;8614;48.522;9.206;2022-07-24T03:27:03;18.60;99.90
16995;DHT22;8614;48.522;9.206;2022-07-24T03:29:30;18.60;99.90
16995;DHT22;8614;48.522;9.206;2022-07-24T03:31:59;18.50;99.90
16995;DHT22;8614;48.522;9.206;2022-07-24T03:34:29;18.50;99.90
16995;DHT22;8614;48.522;9.206;2022-07-24T03:36:56;18.50;99.90
16995;DHT22;8614;48.522;9.206;2022-07-24T03:39:24;18.50;99.90
16995;DHT22;8614;48.522;9.206;2022-07-24T03:41:51;18.50;99.90
16995;DHT22;8614;48.522;9.206;2022-07-24T03:44:18;18.50;99.90
16995;DHT22;8614;48.522;9.206;2022-07-24T03:46:45;18.50;99.90
16995;DHT22;8614;48.522;9.206;2022-07-24T03:49:12;18.50;99.90
16995;DHT22;8614;48.522;9.206;2022-07-24T03:51:38;18.50;99.90
16995;DHT22;8614;48.522;9.206;2022-07-24T03:54:05;18.50;99.90
16995;DHT22;8614;48.522;9.206;2022-07-24T03:56:33;18.50;99.90
16995;DHT22;8614;48.522;9.206;2022-07-24T03:59:00;18.50;99.90
16995;DHT22;8614;48.522;9.206;2022-07-24T04:01:27;18.40;99.90
16995;DHT22;8614;48.522;9.206;2022-07-24T04:03:54;18.40;99.90
16995;DHT22;8614;48.522;9.206;2022-07-24T04:06:21;18.40;99.90
16995;DHT22;8614;48.522;9.206;2022-07-24T04:08:47;18.40;99.90
16995;DHT22;8614;48.522;9.206;2022-07-24T04:11:14;18.30;99.90
16995;DHT22;8614;48.522;9.206;2022-07-24T04:13:42;18.30;99.90
16995;DHT22;8614;48.522;9.206;2022-07-24T04:16:09;18.30;99.90
16995;DHT22;8614;48.522;9.206;2022-07-24T04:18:36;18.40;99.90
16995;DHT22;8614;48.522;9.206;2022-07-24T04:21:03;18.40;99.90
16995;DHT22;8614;48.522;9.206;2022-07-24T04:23:30;18.50;99.90
16995;DHT22;8614;48.522;9.206;2022-07-24T04:25:57;18.50;99.90
16995;DHT22;8614;48.522;9.206;2022-07-24T04:28:24;18.50;99.90
16995;DHT22;8614;48.522;9.206;2022-07-24T04:30:52;18.60;99.90
16995;DHT22;8614;48.522;9.206;2022-07-24T04:33:19;18.70;99.90
16995;DHT22;8614;48.522;9.206;2022-07-24T04:35:46;18.80;99.90
16995;DHT22;8614;48.522;9.206;2022-07-24T04:38:13;18.80;99.90
16995;DHT22;8614;48.522;9.206;2022-07-24T04:40:40;18.90;99.90
16995;DHT22;8614;48.522;9.206;2022-07-24T04:43:08;19.00;99.90
16995;DHT22;8614;48.522;9.206;2022-07-24T04:45:35;19.20;99.90
16995;DHT22;8614;48.522;9.206;2022-07-24T04:48:03;19.30;99.90
16995;DHT22;8614;48.522;9.206;2022-07-24T04:50:30;19.40;99.90
16995;DHT22;8614;48.522;9.206;2022-07-24T04:52:57;19.50;99.90
16995;DHT22;8614;48.522;9.206;2022-07-24T04:55:24;19.60;99.90
16995;DHT22;8614;48.522;9.206;2022-07-24T04:57:51;19.70;99.90
16995;DHT22;8614;48.522;9.206;2022-07-24T05:00:17;20.00;99.90
16995;DHT22;8614;48.522;9.206;2022-07-24T05:02:45;20.20;99.90
16995;DHT22;8614;48.522;9.206;2022-07-24T05:05:13;20.30;99.90
16995;DHT22;8614;48.522;9.206;2022-07-24T05:07:40;20.40;99.90
16995;DHT22;8614;48.522;9.206;2022-07-24T05:10:07;20.50;99.90
16995;DHT22;8614;48.522;9.206;2022-07-24T05:12:34;20.70;99.90
16995;DHT22;8614;48.522;9.206;2022-07-24T05:15:01;20.80;99.90
16995;DHT22;8614;48.522;9.206;2022-07-24T05:17:28;21.00;99.90
16995;DHT22;8614;48.522;9.206;2022-07-24T05:19:55;21.20;99.90
16995;DHT22;8614;48.522;9.206;2022-07-24T05:22:23;21.30;99.90
16995;DHT22;8614;48.522;9.206;2022-07-24T05:24:50;21.40;99.90
16995;DHT22;8614;48.522;9.206;2022-07-24T05:27:16;21.70;99.90
16995;DHT22;8614;48.522;9.206;2022-07-24T05:29:43;21.90;99.90
16995;DHT22;8614;48.522;9.206;2022-07-24T05:32:12;22.00;99.90
16995;DHT22;8614;48.522;9.206;2022-07-24T05:34:39;22.00;99.90
16995;DHT22;8614;48.522;9.206;2022-07-24T05:37:06;22.10;99.90
16995;DHT22;8614;48.522;9.206;2022-07-24T05:39:34;22.10;99.90
16995;DHT22;8614;48.522;9.206;2022-07-24T05:42:01;22.00;99.90
16995;DHT22;8614;48.522;9.206;2022-07-24T05:44:28;22.00;99.90
16995;DHT22;8614;48.522;9.206;2022-07-24T05:46:55;22.00;99.90
16995;DHT22;8614;48.522;9.206;2022-07-24T05:49:22;22.10;99.90
16995;DHT22;8614;48.522;9.206;2022-07-24T05:51:49;22.20;99.90
16995;DHT22;8614;48.522;9.206;2022-07-24T05:54:22;22.20;99.90
16995;DHT22;8614;48.522;9.206;2022-07-24T05:56:50;22.10;99.90
16995;DHT22;8614;48.522;9.206;2022-07-24T05:59:17;22.10;99.90
16995;DHT22;8614;48.522;9.206;2022-07-24T06:01:44;22.10;99.90
16995;DHT22;8614;48.522;9.206;2022-07-24T06:04:11;22.10;99.90
16995;DHT22;8614;48.522;9.206;2022-07-24T06:06:38;22.50;99.90
16995;DHT22;8614;48.522;9.206;2022-07-24T06:09:04;22.80;99.90
16995;DHT22;8614;48.522;9.206;2022-07-24T06:11:31;23.00;99.90
16995;DHT22;8614;48.522;9.206;2022-07-24T06:14:00;23.20;99.90
16995;DHT22;8614;48.522;9.206;2022-07-24T06:16:27;23.60;99.90
16995;DHT22;8614;48.522;9.206;2022-07-24T06:18:53;24.10;99.90
16995;DHT22;8614;48.522;9.206;2022-07-24T06:21:20;24.20;99.90
16995;DHT22;8614;48.522;9.206;2022-07-24T06:23:47;24.30;99.90
16995;DHT22;8614;48.522;9.206;2022-07-24T06:26:14;24.30;99.90
16995;DHT22;8614;48.522;9.206;2022-07-24T06:28:41;24.40;99.90
16995;DHT22;8614;48.522;9.206;2022-07-24T06:31:09;24.40;99.90
16995;DHT22;8614;48.522;9.206;2022-07-24T06:33:36;24.60;99.90
16995;DHT22;8614;48.522;9.206;2022-07-24T06:36:03;24.90;99.90
16995;DHT22;8614;48.522;9.206;2022-07-24T06:38:30;25.30;99.90
16995;DHT22;8614;48.522;9.206;2022-07-24T06:40:56;25.70;99.90
16995;DHT22;8614;48.522;9.206;2022-07-24T06:43:23;26.20;99.90
16995;DHT22;8614;48.522;9.206;2022-07-24T06:45:50;26.50;99.90
16995;DHT22;8614;48.522;9.206;2022-07-24T06:48:18;26.70;99.90
16995;DHT22;8614;48.522;9.206;2022-07-24T06:50:45;26.90;99.90
16995;DHT22;8614;48.522;9.206;2022-07-24T06:53:12;27.20;99.90
16995;DHT22;8614;48.522;9.206;2022-07-24T06:55:38;27.60;99.90
16995;DHT22;8614;48.522;9.206;2022-07-24T06:58:05;27.80;99.90
16995;DHT22;8614;48.522;9.206;2022-07-24T07:00:32;28.10;99.90
16995;DHT22;8614;48.522;9.206;2022-07-24T07:02:59;28.30;99.90
16995;DHT22;8614;48.522;9.206;2022-07-24T07:05:27;28.50;99.90
16995;DHT22;8614;48.522;9.206;2022-07-24T07:07:54;28.90;99.90
16995;DHT22;8614;48.522;9.206;2022-07-24T07:10:21;29.20;99.90
16995;DHT22;8614;48.522;9.206;2022-07-24T07:12:48;29.40;99.90
16995;DHT22;8614;48.522;9.206;2022-07-24T07:15:16;29.60;99.90
16995;DHT22;8614;48.522;9.206;2022-07-24T07:17:43;29.70;99.90
16995;DHT22;8614;48.522;9.206;2022-07-24T07:20:12;29.60;99.90
16995;DHT22;8614;48.522;9.206;2022-07-24T07:22:41;29.70;99.90
16995;DHT22;8614;48.522;9.206;2022-07-24T07:25:09;30.00;99.90
16995;DHT22;8614;48.522;9.206;2022-07-24T07:27:37;30.10;99.90
16995;DHT22;8614;48.522;9.206;2022-07-24T07:30:06;30.40;99.90
16995;DHT22;8614;48.522;9.206;2022-07-24T07:32:33;30.50;99.90
16995;DHT22;8614;48.522;9.206;2022-07-24T07:35:01;30.40;99.90
16995;DHT22;8614;48.522;9.206;2022-07-24T07:37:28;30.30;99.90
16995;DHT22;8614;48.522;9.206;2022-07-24T07:39:56;30.30;99.90
16995;DHT22;8614;48.522;9.206;2022-07-24T07:42:24;30.40;99.90
16995;DHT22;8614;48.522;9.206;2022-07-24T07:44:51;30.70;99.90
16995;DHT22;8614;48.522;9.206;2022-07-24T07:47:18;30.70;99.90
16995;DHT22;8614;48.522;9.206;2022-07-24T07:49:45;31.00;99.90
16995;DHT22;8614;48.522;9.206;2022-07-24T07:52:12;31.20;99.90
16995;DHT22;8614;48.522;9.206;2022-07-24T07:54:39;31.30;99.90
16995;DHT22;8614;48.522;9.206;2022-07-24T07:57:08;30.90;99.90
16995;DHT22;8614;48.522;9.206;2022-07-24T07:59:35;31.00;97.70
16995;DHT22;8614;48.522;9.206;2022-07-24T08:02:02;31.00;99.60
16995;DHT22;8614;48.522;9.206;2022-07-24T08:04:29;31.00;98.70
16995;DHT22;8614;48.522;9.206;2022-07-24T08:06:56;31.10;99.90
16995;DHT22;8614;48.522;9.206;2022-07-24T08:09:23;31.50;99.90
16995;DHT22;8614;48.522;9.206;2022-07-24T08:11:51;31.80;99.20
16995;DHT22;8614;48.522;9.206;2022-07-24T08:14:19;31.70;98.20
16995;DHT22;8614;48.522;9.206;2022-07-24T08:16:46;31.80;99.40
16995;DHT22;8614;48.522;9.206;2022-07-24T08:19:13;31.60;99.10
16995;DHT22;8614;48.522;9.206;2022-07-24T08:21:43;31.50;99.10
16995;DHT22;8614;48.522;9.206;2022-07-24T08:24:11;31.40;98.50
16995;DHT22;8614;48.522;9.206;2022-07-24T08:26:38;31.50;98.50
16995;DHT22;8614;48.522;9.206;2022-07-24T08:29:05;31.70;98.40
16995;DHT22;8614;48.522;9.206;2022-07-24T08:31:34;32.10;98.90
16995;DHT22;8614;48.522;9.206;2022-07-24T08:34:01;32.10;98.00
16995;DHT22;8614;48.522;9.206;2022-07-24T08:36:29;32.30;97.40
16995;DHT22;8614;48.522;9.206;2022-07-24T08:38:55;32.00;97.40
16995;DHT22;8614;48.522;9.206;2022-07-24T08:41:22;32.00;96.70
16995;DHT22;8614;48.522;9.206;2022-07-24T08:43:49;32.30;97.50
16995;DHT22;8614;48.522;9.206;2022-07-24T08:46:16;32.50;97.30
16995;DHT22;8614;48.522;9.206;2022-07-24T08:48:45;32.50;94.90
16995;DHT22;8614;48.522;9.206;2022-07-24T08:51:13;32.30;96.20
16995;DHT22;8614;48.522;9.206;2022-07-24T08:53:42;32.30;95.90
16995;DHT22;8614;48.522;9.206;2022-07-24T08:59:50;32.60;95.40
16995;DHT22;8614;48.522;9.206;2022-07-24T09:03:12;32.70;95.40
16995;DHT22;8614;48.522;9.206;2022-07-24T09:16:43;33.50;94.70
16995;DHT22;8614;48.522;9.206;2022-07-24T09:19:10;33.80;94.80
16995;DHT22;8614;48.522;9.206;2022-07-24T09:21:38;33.80;93.80
16995;DHT22;8614;48.522;9.206;2022-07-24T09:24:12;33.80;94.40
16995;DHT22;8614;48.522;9.206;2022-07-24T09:26:43;34.00;94.00
16995;DHT22;8614;48.522;9.206;2022-07-24T09:29:11;33.80;94.40
16995;DHT22;8614;48.522;9.206;2022-07-24T09:31:54;33.80;93.20
16995;DHT22;8614;48.522;9.206;2022-07-24T09:38:21;33.00;93.90
16995;DHT22;8614;48.522;9.206;2022-07-24T09:42:18;33.10;94.10
16995;DHT22;8614;48.522;9.206;2022-07-24T09:45:38;33.50;93.90
16995;DHT22;8614;48.522;9.206;2022-07-24T09:49:08;33.40;93.80
16995;DHT22;8614;48.522;9.206;2022-07-24T09:52:21;33.50;93.70
16995;DHT22;8614;48.522;9.206;2022-07-24T09:55:04;33.60;92.80
16995;DHT22;8614;48.522;9.206;2022-07-24T10:02:28;34.10;93.40
16995;DHT22;8614;48.522;9.206;2022-07-24T10:05:39;33.80;91.60
16995;DHT22;8614;48.522;9.206;2022-07-24T10:08:41;33.90;92.20
16995;DHT22;8614;48.522;9.206;2022-07-24T10:12:10;33.80;92.20
16995;DHT22;8614;48.522;9.206;2022-07-24T10:32:00;34.00;92.30
16995;DHT22;8614;48.522;9.206;2022-07-24T10:34:31;34.20;91.60
16995;DHT22;8614;48.522;9.206;2022-07-24T10:37:07;34.00;91.30
16995;DHT22;8614;48.522;9.206;2022-07-24T10:39:42;33.80;91.30
16995;DHT22;8614;48.522;9.206;2022-07-24T10:42:09;33.80;91.70
16995;DHT22;8614;48.522;9.206;2022-07-24T10:44:36;33.40;92.00
16995;DHT22;8614;48.522;9.206;2022-07-24T10:47:06;33.40;92.10
16995;DHT22;8614;48.522;9.206;2022-07-24T10:49:41;33.30;91.60
16995;DHT22;8614;48.522;9.206;2022-07-24T10:52:10;33.40;91.50
16995;DHT22;8614;48.522;9.206;2022-07-24T10:54:38;33.20;92.20
16995;DHT22;8614;48.522;9.206;2022-07-24T10:57:05;33.10;91.50
16995;DHT22;8614;48.522;9.206;2022-07-24T10:59:33;33.20;91.60
16995;DHT22;8614;48.522;9.206;2022-07-24T11:02:27;33.20;91.40
16995;DHT22;8614;48.522;9.206;2022-07-24T11:05:25;33.20;91.00
16995;DHT22;8614;48.522;9.206;2022-07-24T11:08:13;33.20;91.90
16995;DHT22;8614;48.522;9.206;2022-07-24T11:10:48;33.20;91.70
16995;DHT22;8614;48.522;9.206;2022-07-24T11:13:44;33.10;91.50
16995;DHT22;8614;48.522;9.206;2022-07-24T11:19:29;32.90;92.20
16995;DHT22;8614;48.522;9.206;2022-07-24T11:22:08;33.00;91.70
16995;DHT22;8614;48.522;9.206;2022-07-24T11:25:09;32.90;92.10
16995;DHT22;8614;48.522;9.206;2022-07-24T11:27:44;32.80;91.50
16995;DHT22;8614;48.522;9.206;2022-07-24T11:30:12;32.80;91.50
16995;DHT22;8614;48.522;9.206;2022-07-24T11:32:40;32.80;92.00
16995;DHT22;8614;48.522;9.206;2022-07-24T11:35:09;33.00;92.30
16995;DHT22;8614;48.522;9.206;2022-07-24T11:37:38;32.90;91.50
16995;DHT22;8614;48.522;9.206;2022-07-24T11:40:35;32.70;91.90
16995;DHT22;8614;48.522;9.206;2022-07-24T11:43:04;33.00;91.60
16995;DHT22;8614;48.522;9.206;2022-07-24T11:45:32;33.20;92.00
16995;DHT22;8614;48.522;9.206;2022-07-24T11:47:59;33.20;91.50
16995;DHT22;8614;48.522;9.206;2022-07-24T11:50:28;33.30;90.90
16995;DHT22;8614;48.522;9.206;2022-07-24T11:52:55;33.40;91.30
16995;DHT22;8614;48.522;9.206;2022-07-24T11:55:24;33.40;91.40
16995;DHT22;8614;48.522;9.206;2022-07-24T11:57:52;33.40;91.10
16995;DHT22;8614;48.522;9.206;2022-07-24T12:00:22;33.30;91.30
16995;DHT22;8614;48.522;9.206;2022-07-24T12:02:51;33.20;90.70
16995;DHT22;8614;48.522;9.206;2022-07-24T12:05:24;32.90;90.50
16995;DHT22;8614;48.522;9.206;2022-07-24T12:07:53;32.60;91.60
16995;DHT22;8614;48.522;9.206;2022-07-24T12:10:22;32.50;91.20
16995;DHT22;8614;48.522;9.206;2022-07-24T12:12:50;32.70;92.00
16995;DHT22;8614;48.522;9.206;2022-07-24T12:15:17;32.90;92.00
16995;DHT22;8614;48.522;9.206;2022-07-24T12:17:56;33.10;91.80
16995;DHT22;8614;48.522;9.206;2022-07-24T12:20:25;33.10;91.10
16995;DHT22;8614;48.522;9.206;2022-07-24T12:22:54;32.90;91.60
16995;DHT22;8614;48.522;9.206;2022-07-24T12:25:21;32.80;90.90
16995;DHT22;8614;48.522;9.206;2022-07-24T12:27:49;32.60;91.30
16995;DHT22;8614;48.522;9.206;2022-07-24T12:30:23;32.40;91.20
16995;DHT22;8614;48.522;9.206;2022-07-24T12:32:57;32.40;91.10
16995;DHT22;8614;48.522;9.206;2022-07-24T12:35:24;32.40;92.00
16995;DHT22;8614;48.522;9.206;2022-07-24T12:37:53;32.30;91.60
16995;DHT22;8614;48.522;9.206;2022-07-24T12:40:32;32.30;91.90
16995;DHT22;8614;48.522;9.206;2022-07-24T12:43:02;32.40;92.00
16995;DHT22;8614;48.522;9.206;2022-07-24T12:45:29;32.30;91.20
16995;DHT22;8614;48.522;9.206;2022-07-24T12:48:19;32.10;91.50
16995;DHT22;8614;48.522;9.206;2022-07-24T12:51:06;31.60;91.40
16995;DHT22;8614;48.522;9.206;2022-07-24T12:53:37;31.40;92.60
16995;DHT22;8614;48.522;9.206;2022-07-24T12:56:13;31.20;92.20
16995;DHT22;8614;48.522;9.206;2022-07-24T12:58:51;31.10;92.90
16995;DHT22;8614;48.522;9.206;2022-07-24T13:01:18;31.00;93.10
16995;DHT22;8614;48.522;9.206;2022-07-24T13:03:50;31.00;93.00
16995;DHT22;8614;48.522;9.206;2022-07-24T13:06:18;31.00;91.80
16995;DHT22;8614;48.522;9.206;2022-07-24T13:08:46;30.80;92.50
16995;DHT22;8614;48.522;9.206;2022-07-24T13:11:13;30.80;93.30
16995;DHT22;8614;48.522;9.206;2022-07-24T13:13:39;30.90;92.40
16995;DHT22;8614;48.522;9.206;2022-07-24T13:16:06;31.00;92.80
16995;DHT22;8614;48.522;9.206;2022-07-24T13:18:33;30.80;92.70
16995;DHT22;8614;48.522;9.206;2022-07-24T13:21:00;30.70;92.30
16995;DHT22;8614;48.522;9.206;2022-07-24T13:23:27;30.60;92.60
16995;DHT22;8614;48.522;9.206;2022-07-24T13:25:55;30.60;93.00
16995;DHT22;8614;48.522;9.206;2022-07-24T13:28:22;30.60;92.30
16995;DHT22;8614;48.522;9.206;2022-07-24T13:30:49;30.70;94.00
16995;DHT22;8614;48.522;9.206;2022-07-24T13:33:16;30.60;92.80
16995;DHT22;8614;48.522;9.206;2022-07-24T13:35:43;30.60;93.50
16995;DHT22;8614;48.522;9.206;2022-07-24T13:38:10;30.60;93.20
16995;DHT22;8614;48.522;9.206;2022-07-24T13:40:36;30.60;92.30
16995;DHT22;8614;48.522;9.206;2022-07-24T13:43:05;30.60;92.40
16995;DHT22;8614;48.522;9.206;2022-07-24T13:45:31;30.50;92.30
16995;DHT22;8614;48.522;9.206;2022-07-24T13:47:58;30.60;93.20
16995;DHT22;8614;48.522;9.206;2022-07-24T13:50:25;30.50;92.90
16995;DHT22;8614;48.522;9.206;2022-07-24T13:52:53;30.60;92.30
16995;DHT22;8614;48.522;9.206;2022-07-24T13:55:19;30.60;92.80
16995;DHT22;8614;48.522;9.206;2022-07-24T13:57:46;30.70;92.90
16995;DHT22;8614;48.522;9.206;2022-07-24T14:00:15;30.50;92.20
16995;DHT22;8614;48.522;9.206;2022-07-24T14:02:42;30.50;92.70
16995;DHT22;8614;48.522;9.206;2022-07-24T14:05:09;30.60;92.70
16995;DHT22;8614;48.522;9.206;2022-07-24T14:07:36;30.50;92.50
16995;DHT22;8614;48.522;9.206;2022-07-24T14:10:03;30.60;92.70
16995;DHT22;8614;48.522;9.206;2022-07-24T14:12:30;30.60;93.20
16995;DHT22;8614;48.522;9.206;2022-07-24T14:14:57;30.70;93.20
16995;DHT22;8614;48.522;9.206;2022-07-24T14:17:25;30.60;93.20
16995;DHT22;8614;48.522;9.206;2022-07-24T14:19:52;30.60;93.80
16995;DHT22;8614;48.522;9.206;2022-07-24T14:22:18;30.50;93.60
16995;DHT22;8614;48.522;9.206;2022-07-24T14:24:45;30.40;93.60
16995;DHT22;8614;48.522;9.206;2022-07-24T14:27:12;30.40;93.80
16995;DHT22;8614;48.522;9.206;2022-07-24T14:29:39;30.40;93.40
16995;DHT22;8614;48.522;9.206;2022-07-24T14:32:06;30.50;93.60
16995;DHT22;8614;48.522;9.206;2022-07-24T14:34:34;30.60;93.80
16995;DHT22;8614;48.522;9.206;2022-07-24T14:37:01;30.60;93.50
16995;DHT22;8614;48.522;9.206;2022-07-24T14:39:27;30.60;94.30
16995;DHT22;8614;48.522;9.206;2022-07-24T14:41:56;30.60;93.20
16995;DHT22;8614;48.522;9.206;2022-07-24T14:44:23;30.50;93.70
16995;DHT22;8614;48.522;9.206;2022-07-24T14:46:49;30.40;93.60
16995;DHT22;8614;48.522;9.206;2022-07-24T14:49:16;30.40;93.40
16995;DHT22;8614;48.522;9.206;2022-07-24T14:51:44;30.30;93.40
16995;DHT22;8614;48.522;9.206;2022-07-24T14:54:11;30.20;93.20
16995;DHT22;8614;48.522;9.206;2022-07-24T14:56:39;30.20;93.00
16995;DHT22;8614;48.522;9.206;2022-07-24T14:59:06;30.20;93.50
16995;DHT22;8614;48.522;9.206;2022-07-24T15:01:34;30.30;93.40
16995;DHT22;8614;48.522;9.206;2022-07-24T15:04:01;30.30;93.60
16995;DHT22;8614;48.522;9.206;2022-07-24T15:06:28;30.30;93.40
16995;DHT22;8614;48.522;9.206;2022-07-24T15:08:56;30.30;93.60
16995;DHT22;8614;48.522;9.206;2022-07-24T15:11:23;30.40;93.40
16995;DHT22;8614;48.522;9.206;2022-07-24T15:13:50;30.40;93.40
16995;DHT22;8614;48.522;9.206;2022-07-24T15:16:17;30.40;93.80
16995;DHT22;8614;48.522;9.206;2022-07-24T15:18:44;30.40;93.50
16995;DHT22;8614;48.522;9.206;2022-07-24T15:21:11;30.40;93.60
16995;DHT22;8614;48.522;9.206;2022-07-24T15:23:38;30.30;93.60
16995;DHT22;8614;48.522;9.206;2022-07-24T15:26:06;30.30;93.70
16995;DHT22;8614;48.522;9.206;2022-07-24T15:28:33;30.40;93.60
16995;DHT22;8614;48.522;9.206;2022-07-24T15:31:00;30.30;93.50
16995;DHT22;8614;48.522;9.206;2022-07-24T15:33:28;30.30;94.10
16995;DHT22;8614;48.522;9.206;2022-07-24T15:35:55;30.30;93.70
16995;DHT22;8614;48.522;9.206;2022-07-24T15:38:22;30.30;93.70
16995;DHT22;8614;48.522;9.206;2022-07-24T15:40:49;30.30;93.70
16995;DHT22;8614;48.522;9.206;2022-07-24T15:43:17;30.30;94.10
16995;DHT22;8614;48.522;9.206;2022-07-24T15:45:44;30.20;93.50
16995;DHT22;8614;48.522;9.206;2022-07-24T15:48:11;30.30;94.10
16995;DHT22;8614;48.522;9.206;2022-07-24T15:50:38;30.20;93.80
16995;DHT22;8614;48.522;9.206;2022-07-24T15:53:05;30.20;94.40
16995;DHT22;8614;48.522;9.206;2022-07-24T15:55:31;30.20;93.90
16995;DHT22;8614;48.522;9.206;2022-07-24T15:57:58;30.20;94.10
16995;DHT22;8614;48.522;9.206;2022-07-24T16:00:26;30.30;94.60
16995;DHT22;8614;48.522;9.206;2022-07-24T16:02:53;30.20;94.00
16995;DHT22;8614;48.522;9.206;2022-07-24T16:05:20;30.20;94.00
16995;DHT22;8614;48.522;9.206;2022-07-24T16:07:49;30.20;93.70
16995;DHT22;8614;48.522;9.206;2022-07-24T16:10:16;30.20;94.40
16995;DHT22;8614;48.522;9.206;2022-07-24T16:12:43;30.20;94.10
16995;DHT22;8614;48.522;9.206;2022-07-24T16:15:10;30.10;94.30
16995;DHT22;8614;48.522;9.206;2022-07-24T16:17:39;30.00;94.00
16995;DHT22;8614;48.522;9.206;2022-07-24T16:20:07;30.00;94.50
16995;DHT22;8614;48.522;9.206;2022-07-24T16:22:34;30.00;94.70
16995;DHT22;8614;48.522;9.206;2022-07-24T16:25:02;29.90;94.40
16995;DHT22;8614;48.522;9.206;2022-07-24T16:27:29;29.90;94.40
16995;DHT22;8614;48.522;9.206;2022-07-24T16:29:56;29.90;94.50
16995;DHT22;8614;48.522;9.206;2022-07-24T16:32:23;29.90;94.80
16995;DHT22;8614;48.522;9.206;2022-07-24T16:34:51;29.80;94.60
16995;DHT22;8614;48.522;9.206;2022-07-24T16:37:18;29.80;94.80
16995;DHT22;8614;48.522;9.206;2022-07-24T16:39:45;29.80;94.60
16995;DHT22;8614;48.522;9.206;2022-07-24T16:42:12;29.90;95.20